createdAt,value
2023-04-06T00:00:10.469Z,101645.00
2023-04-06T00:02:38.641Z,101646.00
2023-04-06T00:05:08.520Z,101581.00
2023-04-06T00:07:37.524Z,101642.00
2023-04-06T00:10:09.834Z,101631.00
2023-04-06T00:12:38.561Z,101629.00
2023-04-06T00:15:09.508Z,101628.00
2023-04-06T00:17:38.337Z,101635.00
2023-04-06T00:20:09.215Z,101615.00
2023-04-06T00:22:38.271Z,101619.00
2023-04-06T00:25:11.278Z,101619.00
2023-04-06T00:27:41.108Z,101627.00
2023-04-06T00:30:11.982Z,101623.00
2023-04-06T00:32:41.166Z,101604.00
2023-04-06T00:35:11.520Z,101614.00
2023-04-06T00:37:40.453Z,101616.00
2023-04-06T00:40:13.020Z,101603.00
2023-04-06T00:42:41.977Z,101595.00
2023-04-06T00:45:12.565Z,101604.00
2023-04-06T00:47:41.537Z,101602.00
2023-04-06T00:50:12.017Z,101599.00
2023-04-06T00:52:40.832Z,101601.00
2023-04-06T00:55:12.022Z,101589.00
2023-04-06T00:57:41.120Z,101585.00
2023-04-06T01:00:11.399Z,101583.00
2023-04-06T01:02:40.857Z,101588.00
2023-04-06T01:05:10.812Z,101572.00
2023-04-06T01:07:39.654Z,101559.00
2023-04-06T01:10:11.294Z,101566.00
2023-04-06T01:12:40.226Z,101571.00
2023-04-06T01:15:12.853Z,101562.00
2023-04-06T01:17:41.726Z,101553.00
2023-04-06T01:20:11.479Z,101545.00
2023-04-06T01:22:42.398Z,101552.00
2023-04-06T01:25:13.262Z,101550.00
2023-04-06T01:27:42.098Z,101547.00
2023-04-06T01:30:11.609Z,101551.00
2023-04-06T01:32:41.219Z,101549.00
2023-04-06T01:35:11.505Z,101542.00
2023-04-06T01:37:42.192Z,101484.00
2023-04-06T01:40:12.697Z,101536.00
2023-04-06T01:42:41.508Z,101540.00
2023-04-06T01:45:11.885Z,101534.00
2023-04-06T01:47:40.984Z,101537.00
2023-04-06T01:50:11.549Z,101534.00
2023-04-06T01:52:42.204Z,101527.00
2023-04-06T01:55:11.452Z,101529.00
2023-04-06T01:57:40.172Z,101529.00
2023-04-06T02:00:10.973Z,101520.00
2023-04-06T02:02:40.093Z,101523.00
2023-04-06T02:05:10.296Z,101528.00
2023-04-06T02:07:40.909Z,101514.00
2023-04-06T02:10:17.526Z,101528.00
2023-04-06T02:12:46.800Z,101525.00
2023-04-06T02:15:16.092Z,101523.00
2023-04-06T02:17:45.077Z,101521.00
2023-04-06T02:20:14.353Z,101519.00
2023-04-06T02:22:44.794Z,101512.00
2023-04-06T02:25:13.622Z,101510.00
2023-04-06T02:27:42.694Z,101509.00
2023-04-06T02:30:13.499Z,101509.00
2023-04-06T02:32:42.635Z,101499.00
2023-04-06T02:35:11.695Z,101494.00
2023-04-06T02:37:40.696Z,101494.00
2023-04-06T02:40:13.709Z,101504.00
2023-04-06T02:42:42.717Z,101506.00
2023-04-06T02:45:12.056Z,101504.00
2023-04-06T02:47:40.912Z,101505.00
2023-04-06T02:50:11.444Z,101501.00
2023-04-06T02:52:40.602Z,101494.00
2023-04-06T02:55:11.809Z,101498.00
2023-04-06T02:57:40.765Z,101487.00
2023-04-06T03:00:11.325Z,101494.00
2023-04-06T03:02:40.763Z,101489.00
2023-04-06T03:05:10.437Z,101490.00
2023-04-06T03:07:39.582Z,101483.00
2023-04-06T03:10:11.899Z,101483.00
2023-04-06T03:12:42.809Z,101483.00
2023-04-06T03:15:13.131Z,101479.00
2023-04-06T03:17:42.829Z,101475.00
2023-04-06T03:20:12.770Z,101474.00
2023-04-06T03:22:41.311Z,101483.00
2023-04-06T03:25:12.543Z,101481.00
2023-04-06T03:27:41.542Z,101481.00
2023-04-06T03:30:11.419Z,101480.00
2023-04-06T03:32:40.596Z,101463.00
2023-04-06T03:35:10.847Z,101474.00
2023-04-06T03:37:39.187Z,101477.00
2023-04-06T03:40:11.521Z,101468.00
2023-04-06T03:42:40.314Z,101474.00
2023-04-06T03:45:11.472Z,101463.00
2023-04-06T03:47:40.081Z,101464.00
2023-04-06T03:50:09.770Z,101466.00
2023-04-06T03:52:38.257Z,101465.00
2023-04-06T03:55:09.013Z,101461.00
2023-04-06T03:57:39.127Z,101466.00
2023-04-06T04:00:09.725Z,101454.00
2023-04-06T04:02:38.254Z,101449.00
2023-04-06T04:05:07.823Z,101451.00
2023-04-06T04:07:36.284Z,101456.00
2023-04-06T04:10:05.002Z,101460.00
2023-04-06T04:12:33.489Z,101463.00
2023-04-06T04:15:04.098Z,101438.00
2023-04-06T04:17:32.695Z,101467.00
2023-04-06T04:20:01.046Z,101455.00
2023-04-06T04:22:29.588Z,101390.00
2023-04-06T04:24:58.224Z,101461.00
2023-04-06T04:27:26.960Z,101448.00
2023-04-06T04:29:55.210Z,101448.00
2023-04-06T04:32:28.316Z,101454.00
2023-04-06T04:34:56.605Z,101447.00
2023-04-06T04:37:24.711Z,101461.00
2023-04-06T04:39:52.806Z,101449.00
2023-04-06T04:42:21.526Z,101444.00
2023-04-06T04:44:49.708Z,101443.00
2023-04-06T04:47:17.854Z,101423.00
2023-04-06T04:49:47.352Z,101447.00
2023-04-06T04:52:15.546Z,101453.00
2023-04-06T04:54:44.118Z,101464.00
2023-04-06T04:57:12.349Z,101448.00
2023-04-06T04:59:40.930Z,101457.00
2023-04-06T05:02:09.478Z,101448.00
2023-04-06T05:04:38.232Z,101431.00
2023-04-06T05:07:10.177Z,101445.00
2023-04-06T05:09:38.390Z,101442.00
2023-04-06T05:12:08.291Z,101450.00
2023-04-06T05:14:37.663Z,101449.00
2023-04-06T05:17:06.720Z,101448.00
2023-04-06T05:19:35.548Z,101449.00
2023-04-06T05:22:04.511Z,101447.00
2023-04-06T05:24:36.344Z,101447.00
2023-04-06T05:27:06.523Z,101452.00
2023-04-06T05:29:36.031Z,101451.00
2023-04-06T05:32:05.316Z,101453.00
2023-04-06T05:34:34.422Z,101437.00
2023-04-06T05:37:03.461Z,101455.00
2023-04-06T05:39:34.153Z,101457.00
2023-04-06T05:42:07.747Z,101447.00
2023-04-06T05:44:36.759Z,101430.00
2023-04-06T05:47:05.759Z,101448.00
2023-04-06T05:49:34.327Z,101465.00
2023-04-06T05:52:03.570Z,101461.00
2023-04-06T05:54:33.690Z,101459.00
2023-04-06T05:57:04.082Z,101464.00
2023-04-06T05:59:33.393Z,101465.00
2023-04-06T06:02:02.773Z,101458.00
2023-04-06T06:04:32.626Z,101457.00
2023-04-06T06:07:01.672Z,101455.00
2023-04-06T06:09:30.163Z,101461.00
2023-04-06T06:12:00.037Z,101453.00
2023-04-06T06:14:29.834Z,101461.00
2023-04-06T06:16:58.254Z,101458.00
2023-04-06T06:19:27.540Z,101459.00
2023-04-06T06:21:56.464Z,101455.00
2023-04-06T06:24:25.271Z,101457.00
2023-04-06T06:26:54.396Z,101456.00
2023-04-06T06:29:25.055Z,101457.00
2023-04-06T06:31:53.567Z,101451.00
2023-04-06T06:34:22.608Z,101453.00
2023-04-06T06:36:52.960Z,101448.00
2023-04-06T06:39:22.338Z,101456.00
2023-04-06T06:41:51.491Z,101438.00
2023-04-06T06:44:20.834Z,101453.00
2023-04-06T06:46:52.041Z,101454.00
2023-04-06T06:49:21.091Z,101450.00
2023-04-06T06:51:50.429Z,101459.00
2023-04-06T06:54:19.261Z,101460.00
2023-04-06T06:56:49.029Z,101448.00
2023-04-06T06:59:18.791Z,101435.00
2023-04-06T07:01:49.712Z,101451.00
2023-04-06T07:04:18.716Z,101455.00
2023-04-06T07:06:47.625Z,101427.00
2023-04-06T07:09:16.742Z,101451.00
2023-04-06T07:11:45.300Z,101443.00
2023-04-06T07:14:14.118Z,101448.00
2023-04-06T07:16:42.739Z,101446.00
2023-04-06T07:19:12.777Z,101451.00
2023-04-06T07:21:41.110Z,101426.00
2023-04-06T07:24:10.396Z,101442.00
2023-04-06T07:26:39.399Z,101444.00
2023-04-06T07:29:08.212Z,101443.00
2023-04-06T07:31:37.473Z,101443.00
2023-04-06T07:34:06.389Z,101441.00
2023-04-06T07:36:36.494Z,101451.00
2023-04-06T07:39:05.070Z,101444.00
2023-04-06T07:41:33.563Z,101450.00
2023-04-06T07:44:01.678Z,101415.00
2023-04-06T07:46:29.874Z,101446.00
2023-04-06T07:48:59.308Z,101416.00
2023-04-06T07:51:27.494Z,101465.00
2023-04-06T07:53:57.007Z,101410.00
2023-04-06T07:56:26.088Z,101451.00
2023-04-06T07:58:56.593Z,101448.00
2023-04-06T08:01:25.691Z,101423.00
2023-04-06T08:03:55.609Z,101439.00
2023-04-06T08:06:24.880Z,101397.00
2023-04-06T08:08:58.269Z,101443.00
2023-04-06T08:11:27.721Z,101440.00
2023-04-06T08:13:57.561Z,101404.00
2023-04-06T08:16:26.453Z,101423.00
2023-04-06T08:18:54.596Z,101420.00
2023-04-06T08:21:22.743Z,101425.00
2023-04-06T08:23:51.350Z,101445.00
2023-04-06T08:26:21.160Z,101403.00
2023-04-06T08:28:49.239Z,101411.00
2023-04-06T08:31:17.427Z,101410.00
2023-04-06T08:33:45.969Z,101403.00
2023-04-06T08:36:17.848Z,101441.00
2023-04-06T08:38:45.964Z,101431.00
2023-04-06T08:41:15.509Z,101430.00
2023-04-06T08:43:48.684Z,101396.00
2023-04-06T08:46:17.635Z,101417.00
2023-04-06T08:48:45.815Z,101382.00
2023-04-06T08:51:14.456Z,101427.00
2023-04-06T08:53:43.147Z,101419.00
2023-04-06T08:56:12.964Z,101400.00
2023-04-06T08:58:46.459Z,101374.00
2023-04-06T09:01:16.861Z,101411.00
2023-04-06T09:03:47.100Z,101381.00
2023-04-06T09:06:16.090Z,101389.00
2023-04-06T09:08:44.429Z,101414.00
2023-04-06T09:11:13.436Z,101418.00
2023-04-06T09:13:51.456Z,101417.00
2023-04-06T09:16:24.826Z,101406.00
2023-04-06T09:18:53.464Z,101411.00
2023-04-06T09:21:25.319Z,101408.00
2023-04-06T09:24:01.674Z,101402.00
2023-04-06T09:26:30.196Z,101406.00
2023-04-06T09:29:02.049Z,101403.00
2023-04-06T09:31:33.971Z,101396.00
2023-04-06T09:34:02.939Z,101380.00
2023-04-06T09:36:35.830Z,101402.00
2023-04-06T09:39:06.216Z,101384.00
2023-04-06T09:41:36.631Z,101397.00
2023-04-06T09:44:07.864Z,101397.00
2023-04-06T09:46:50.574Z,101390.00
2023-04-06T09:49:25.126Z,101384.00
2023-04-06T09:51:58.834Z,101373.00
2023-04-06T09:54:31.854Z,101378.00
2023-04-06T09:57:08.055Z,101377.00
2023-04-06T09:59:46.804Z,101371.00
2023-04-06T10:02:25.013Z,101373.00
2023-04-06T10:05:01.657Z,101371.00
2023-04-06T10:07:30.434Z,101368.00
2023-04-06T10:10:01.269Z,101370.00
2023-04-06T10:12:29.874Z,101348.00
2023-04-06T10:14:59.726Z,101370.00
2023-04-06T10:17:28.452Z,101364.00
2023-04-06T10:20:04.978Z,101362.00
2023-04-06T10:22:44.436Z,101365.00
2023-04-06T10:25:12.726Z,101360.00
2023-04-06T10:27:41.144Z,101366.00
2023-04-06T10:30:11.420Z,101351.00
2023-04-06T10:32:41.147Z,101364.00
2023-04-06T10:35:11.300Z,101365.00
2023-04-06T10:37:52.206Z,101356.00
2023-04-06T10:40:22.773Z,101358.00
2023-04-06T10:42:51.305Z,101363.00
2023-04-06T10:45:25.908Z,101329.00
2023-04-06T10:47:55.973Z,101358.00
2023-04-06T10:50:25.036Z,101355.00
2023-04-06T10:53:02.498Z,101345.00
2023-04-06T10:55:31.675Z,101345.00
2023-04-06T10:57:59.853Z,101340.00
2023-04-06T11:00:36.283Z,101336.00
2023-04-06T11:03:11.497Z,101341.00
2023-04-06T11:05:39.747Z,101322.00
2023-04-06T11:08:08.066Z,101335.00
2023-04-06T11:10:36.206Z,101326.00
2023-04-06T11:13:06.710Z,101332.00
2023-04-06T11:15:39.435Z,101332.00
2023-04-06T11:18:07.896Z,101325.00
2023-04-06T11:20:36.277Z,101331.00
2023-04-06T11:23:04.726Z,101334.00
2023-04-06T11:25:33.677Z,101337.00
2023-04-06T11:28:01.932Z,101323.00
2023-04-06T11:30:30.501Z,101325.00
2023-04-06T11:33:04.079Z,101276.00
2023-04-06T11:35:34.703Z,101279.00
2023-04-06T11:38:05.961Z,101326.00
2023-04-06T11:40:34.189Z,101315.00
2023-04-06T11:43:02.253Z,101308.00
2023-04-06T11:45:30.428Z,101320.00
2023-04-06T11:48:02.233Z,101321.00
2023-04-06T11:50:36.072Z,101322.00
2023-04-06T11:53:04.801Z,101311.00
2023-04-06T11:55:40.085Z,101317.00
2023-04-06T11:58:08.381Z,101309.00
2023-04-06T12:00:38.152Z,101312.00
2023-04-06T12:03:07.754Z,101311.00
2023-04-06T12:05:36.189Z,101311.00
2023-04-06T12:08:04.254Z,101318.00
2023-04-06T12:10:35.366Z,101314.00
2023-04-06T12:13:03.469Z,101313.00
2023-04-06T12:15:31.628Z,101303.00
2023-04-06T12:17:59.842Z,101302.00
2023-04-06T12:20:29.437Z,101306.00
2023-04-06T12:22:57.585Z,101306.00
2023-04-06T12:25:25.830Z,101300.00
2023-04-06T12:27:54.037Z,101310.00
2023-04-06T12:30:22.481Z,101312.00
2023-04-06T12:32:52.019Z,101311.00
2023-04-06T12:35:22.539Z,101312.00
2023-04-06T12:37:52.072Z,101306.00
2023-04-06T12:40:20.720Z,101301.00
2023-04-06T12:42:48.849Z,101305.00
2023-04-06T12:45:18.807Z,101311.00
2023-04-06T12:47:47.019Z,101308.00
2023-04-06T12:50:15.540Z,101292.00
2023-04-06T12:52:43.625Z,101295.00
2023-04-06T12:55:13.173Z,101299.00
2023-04-06T12:57:41.638Z,101255.00
2023-04-06T13:00:11.119Z,101299.00
2023-04-06T13:02:39.599Z,101304.00
2023-04-06T13:05:08.716Z,101256.00
2023-04-06T13:07:36.818Z,101293.00
2023-04-06T13:10:06.213Z,101269.00
2023-04-06T13:12:36.051Z,101264.00
2023-04-06T13:15:04.905Z,101306.00
2023-04-06T13:17:33.250Z,101309.00
2023-04-06T13:20:01.513Z,101305.00
2023-04-06T13:22:29.620Z,101309.00
2023-04-06T13:24:57.699Z,101305.00
2023-04-06T13:27:25.964Z,101305.00
2023-04-06T13:29:55.927Z,101308.00
2023-04-06T13:32:24.020Z,101298.00
2023-04-06T13:34:54.179Z,101310.00
2023-04-06T13:37:22.435Z,101286.00
2023-04-06T13:39:50.667Z,101273.00
2023-04-06T13:42:18.765Z,101276.00
2023-04-06T13:44:47.812Z,101262.00
2023-04-06T13:47:17.383Z,101290.00
2023-04-06T13:49:46.013Z,101306.00
2023-04-06T13:52:14.167Z,101291.00
2023-04-06T13:54:42.386Z,101266.00
2023-04-06T13:57:10.979Z,101276.00
2023-04-06T13:59:39.560Z,101297.00
2023-04-06T14:02:10.059Z,101293.00
2023-04-06T14:04:40.052Z,101280.00
2023-04-06T14:07:08.566Z,101283.00
2023-04-06T14:09:36.798Z,101290.00
2023-04-06T14:12:05.143Z,101290.00
2023-04-06T14:14:33.277Z,101257.00
2023-04-06T14:17:01.573Z,101288.00
2023-04-06T14:19:30.183Z,101270.00
2023-04-06T14:22:00.128Z,101269.00
2023-04-06T14:24:28.296Z,101273.00
2023-04-06T14:26:57.076Z,101273.00
2023-04-06T14:29:25.423Z,101285.00
2023-04-06T14:31:53.530Z,101281.00
2023-04-06T14:34:22.245Z,101290.00
2023-04-06T14:36:50.475Z,101269.00
2023-04-06T14:39:20.024Z,101283.00
2023-04-06T14:41:49.815Z,101281.00
2023-04-06T14:44:19.349Z,101284.00
2023-04-06T14:46:47.514Z,101291.00
2023-04-06T14:49:15.687Z,101287.00
2023-04-06T14:51:44.119Z,101276.00
2023-04-06T14:54:12.660Z,101292.00
2023-04-06T14:56:43.798Z,101288.00
2023-04-06T14:59:11.959Z,101289.00
2023-04-06T15:01:40.265Z,101301.00
2023-04-06T15:04:09.206Z,101301.00
2023-04-06T15:06:37.676Z,101290.00
2023-04-06T15:09:05.764Z,101296.00
2023-04-06T15:11:33.859Z,101294.00
2023-04-06T15:14:03.508Z,101287.00
2023-04-06T15:16:33.630Z,101258.00
2023-04-06T15:19:02.490Z,101270.00
2023-04-06T15:21:31.329Z,101273.00
2023-04-06T15:23:59.588Z,101278.00
2023-04-06T15:26:27.851Z,101258.00
2023-04-06T15:28:56.351Z,101313.00
2023-04-06T15:31:36.862Z,101275.00
2023-04-06T15:34:06.529Z,101306.00
2023-04-06T15:36:35.139Z,101298.00
2023-04-06T15:39:04.156Z,101258.00
2023-04-06T15:41:32.495Z,101287.00
2023-04-06T15:44:00.637Z,101279.00
2023-04-06T15:46:30.172Z,101277.00
2023-04-06T15:48:58.722Z,101279.00
2023-04-06T15:51:27.474Z,101303.00
2023-04-06T15:53:55.584Z,101303.00
2023-04-06T15:56:23.743Z,101306.00
2023-04-06T15:58:51.906Z,101262.00
2023-04-06T16:01:20.865Z,101303.00
2023-04-06T16:03:50.692Z,101278.00
2023-04-06T16:06:19.263Z,101287.00
2023-04-06T16:08:47.713Z,101307.00
2023-04-06T16:11:16.287Z,101291.00
2023-04-06T16:13:47.333Z,101311.00
2023-04-06T16:16:21.471Z,101286.00
2023-04-06T16:18:51.024Z,101305.00
2023-04-06T16:21:19.787Z,101259.00
2023-04-06T16:23:49.257Z,101276.00
2023-04-06T16:26:19.013Z,101305.00
2023-04-06T16:28:47.451Z,101252.00
2023-04-06T16:31:21.615Z,101273.00
2023-04-06T16:33:53.479Z,101275.00
2023-04-06T16:36:25.249Z,101281.00
2023-04-06T16:38:53.516Z,101254.00
2023-04-06T16:41:22.224Z,101277.00
2023-04-06T16:43:50.710Z,101259.00
2023-04-06T16:46:19.258Z,101240.00
2023-04-06T16:48:47.854Z,101236.00
2023-04-06T16:51:18.854Z,101280.00
2023-04-06T16:53:49.950Z,101296.00
2023-04-06T16:56:18.151Z,101282.00
2023-04-06T16:58:46.887Z,101290.00
2023-04-06T17:01:22.254Z,101237.00
2023-04-06T17:03:51.191Z,101257.00
2023-04-06T17:06:21.272Z,101259.00
2023-04-06T17:08:53.875Z,101235.00
2023-04-06T17:11:28.068Z,101271.00
2023-04-06T17:14:01.015Z,101259.00
2023-04-06T17:16:29.688Z,101256.00
2023-04-06T17:18:58.591Z,101268.00
2023-04-06T17:21:28.286Z,101268.00
2023-04-06T17:23:56.551Z,101273.00
2023-04-06T17:26:27.221Z,101256.00
2023-04-06T17:28:55.448Z,101252.00
2023-04-06T17:31:23.562Z,101266.00
2023-04-06T17:33:51.909Z,101262.00
2023-04-06T17:36:21.968Z,101268.00
2023-04-06T17:38:52.155Z,101276.00
2023-04-06T17:41:21.737Z,101223.00
2023-04-06T17:43:51.276Z,101247.00
2023-04-06T17:46:20.521Z,101249.00
2023-04-06T17:48:48.871Z,101276.00
2023-04-06T17:51:19.364Z,101212.00
2023-04-06T17:53:47.649Z,101245.00
2023-04-06T17:56:17.416Z,101273.00
2023-04-06T17:58:45.919Z,101264.00
2023-04-06T18:01:14.770Z,101195.00
2023-04-06T18:03:43.087Z,101247.00
2023-04-06T18:06:13.598Z,101264.00
2023-04-06T18:08:42.935Z,101219.00
2023-04-06T18:11:18.548Z,101259.00
2023-04-06T18:13:47.694Z,101267.00
2023-04-06T18:16:17.475Z,101251.00
2023-04-06T18:18:46.091Z,101260.00
2023-04-06T18:21:14.320Z,101233.00
2023-04-06T18:23:42.596Z,101233.00
2023-04-06T18:26:19.504Z,101257.00
2023-04-06T18:28:48.516Z,101264.00
2023-04-06T18:31:16.981Z,101223.00
2023-04-06T18:33:47.056Z,101189.00
2023-04-06T18:36:15.716Z,101246.00
2023-04-06T18:38:48.091Z,101260.00
2023-04-06T18:41:21.986Z,101255.00
2023-04-06T18:43:50.306Z,101268.00
2023-04-06T18:46:20.547Z,101261.00
2023-04-06T18:48:48.770Z,101230.00
2023-04-06T18:51:16.923Z,101263.00
2023-04-06T18:53:45.371Z,101259.00
2023-04-06T18:56:20.083Z,101262.00
2023-04-06T18:58:49.190Z,101244.00
2023-04-06T19:01:32.115Z,101258.00
2023-04-06T19:04:04.546Z,101255.00
2023-04-06T19:06:33.901Z,101272.00
2023-04-06T19:09:02.600Z,101239.00
2023-04-06T19:11:34.943Z,101252.00
2023-04-06T19:14:02.974Z,101230.00
2023-04-06T19:16:31.391Z,101264.00
2023-04-06T19:19:00.019Z,101247.00
2023-04-06T19:21:28.477Z,101221.00
2023-04-06T19:23:57.137Z,101263.00
2023-04-06T19:26:27.907Z,101196.00
2023-04-06T19:28:57.699Z,101226.00
2023-04-06T19:31:27.973Z,101266.00
2023-04-06T19:33:56.415Z,101248.00
2023-04-06T19:36:24.645Z,101222.00
2023-04-06T19:38:52.837Z,101261.00
2023-04-06T19:41:21.596Z,101246.00
2023-04-06T19:43:49.738Z,101195.00
2023-04-06T19:46:21.719Z,101241.00
2023-04-06T19:48:50.785Z,101265.00
2023-04-06T19:51:19.108Z,101238.00
2023-04-06T19:53:47.317Z,101239.00
2023-04-06T19:56:16.326Z,101236.00
2023-04-06T19:58:44.584Z,101260.00
2023-04-06T20:01:12.786Z,101252.00
2023-04-06T20:03:42.473Z,101264.00
2023-04-06T20:06:10.887Z,101240.00
2023-04-06T20:08:39.376Z,101216.00
2023-04-06T20:11:09.025Z,101262.00
2023-04-06T20:13:38.693Z,101253.00
2023-04-06T20:16:07.944Z,101201.00
2023-04-06T20:18:37.285Z,101258.00
2023-04-06T20:21:07.534Z,101226.00
2023-04-06T20:23:38.085Z,101248.00
2023-04-06T20:26:10.644Z,101239.00
2023-04-06T20:28:42.807Z,101186.00
2023-04-06T20:31:12.408Z,101244.00
2023-04-06T20:33:46.064Z,101255.00
2023-04-06T20:36:16.118Z,101265.00
2023-04-06T20:38:44.221Z,101201.00
2023-04-06T20:41:12.922Z,101222.00
2023-04-06T20:43:41.229Z,101248.00
2023-04-06T20:46:09.412Z,101259.00
2023-04-06T20:48:38.308Z,101236.00
2023-04-06T20:51:06.735Z,101219.00
2023-04-06T20:53:36.678Z,101222.00
2023-04-06T20:56:04.846Z,101224.00
2023-04-06T20:58:32.974Z,101249.00
2023-04-06T21:01:01.141Z,101243.00
2023-04-06T21:03:29.936Z,101245.00
2023-04-06T21:06:02.316Z,101231.00
2023-04-06T21:08:30.656Z,101239.00
2023-04-06T21:11:00.939Z,101230.00
2023-04-06T21:13:30.141Z,101157.00
2023-04-06T21:15:58.791Z,101238.00
2023-04-06T21:18:27.915Z,101232.00
2023-04-06T21:20:56.338Z,101233.00
2023-04-06T21:23:24.420Z,101217.00
2023-04-06T21:25:55.485Z,101220.00
2023-04-06T21:28:25.528Z,101188.00
2023-04-06T21:30:53.909Z,101193.00
2023-04-06T21:33:22.818Z,101206.00
2023-04-06T21:35:51.023Z,101192.00
2023-04-06T21:38:19.204Z,101214.00
2023-04-06T21:40:55.794Z,101211.00
2023-04-06T21:43:25.322Z,101201.00
2023-04-06T21:45:53.477Z,101185.00
2023-04-06T21:48:21.600Z,101208.00
2023-04-06T21:50:49.697Z,101208.00
2023-04-06T21:53:17.819Z,101212.00
2023-04-06T21:55:46.158Z,101166.00
2023-04-06T21:58:15.887Z,101199.00
2023-04-06T22:00:46.375Z,101192.00
2023-04-06T22:03:15.448Z,101207.00
2023-04-06T22:05:43.740Z,101202.00
2023-04-06T22:08:17.811Z,101205.00
2023-04-06T22:10:49.170Z,101204.00
2023-04-06T22:13:17.281Z,101148.00
2023-04-06T22:15:46.823Z,101203.00
2023-04-06T22:18:14.955Z,101151.00
2023-04-06T22:20:43.065Z,101200.00
2023-04-06T22:23:11.837Z,101207.00
2023-04-06T22:25:39.995Z,101210.00
2023-04-06T22:28:08.036Z,101205.00
2023-04-06T22:30:36.148Z,101194.00
2023-04-06T22:33:06.757Z,101172.00
2023-04-06T22:35:35.662Z,101199.00
2023-04-06T22:38:17.163Z,101192.00
2023-04-06T22:40:48.435Z,101196.00
2023-04-06T22:43:16.589Z,101191.00
2023-04-06T22:45:45.146Z,101194.00
2023-04-06T22:48:16.450Z,101186.00
2023-04-06T22:50:44.635Z,101169.00
2023-04-06T22:53:12.778Z,101200.00
2023-04-06T22:55:41.295Z,101193.00
2023-04-06T22:58:09.453Z,101204.00
2023-04-06T23:00:37.551Z,101204.00
2023-04-06T23:03:06.143Z,101149.00
2023-04-06T23:05:36.154Z,101163.00
2023-04-06T23:08:04.327Z,101198.00
2023-04-06T23:10:32.510Z,101165.00
2023-04-06T23:13:00.640Z,101153.00
2023-04-06T23:15:28.874Z,101176.00
2023-04-06T23:17:57.157Z,101185.00
2023-04-06T23:20:25.369Z,101196.00
2023-04-06T23:22:55.146Z,101209.00
2023-04-06T23:25:23.710Z,101171.00
2023-04-06T23:27:52.326Z,101160.00
2023-04-06T23:30:20.605Z,101195.00
2023-04-06T23:32:48.788Z,101147.00
2023-04-06T23:35:17.232Z,101196.00
2023-04-06T23:37:45.600Z,101179.00
2023-04-06T23:40:15.395Z,101191.00
2023-04-06T23:42:43.536Z,101148.00
2023-04-06T23:45:12.268Z,101203.00
2023-04-06T23:47:40.443Z,101208.00
2023-04-06T23:50:10.075Z,101160.00
2023-04-06T23:52:38.523Z,101207.00
2023-04-06T23:55:08.174Z,101207.00
2023-04-06T23:57:38.038Z,101188.00
